Time;durP1;ratioP1;P1;durP2;ratioP2;P2;SDS_P1;SDS_P2;PMS_P1;PMS_P2;Temp;Humidity;BMP_temperature;BMP_pressure;BME280_temperature;BME280_humidity;BME280_pressure;Samples;Min_cycle;Max_cycle;Signal;HPM_P1;HPM_P2
2023/02/27 00:00:15;;;;;;;4.72;2.60;;;-1.80;99.90;;;;;;484843;245;27406;-75
2023/02/27 00:02:16;;;;;;;6.03;2.90;;;-1.80;99.90;;;;;;474338;250;27515;-76
2023/02/27 00:04:17;;;;;;;5.32;3.53;;;-1.80;99.90;;;;;;484836;245;27408;-75
2023/02/27 00:06:19;;;;;;;6.12;3.20;;;-1.80;99.90;;;;;;474361;250;27524;-75
2023/02/27 00:08:20;;;;;;;4.37;3.30;;;-1.80;99.90;;;;;;484842;245;27372;-74
2023/02/27 00:10:21;;;;;;;4.65;3.20;;;-1.90;99.90;;;;;;474305;250;28086;-75
2023/02/27 00:12:22;;;;;;;5.45;3.47;;;-1.90;99.90;;;;;;484848;245;27906;-75
2023/02/27 00:14:24;;;;;;;3.85;3.15;;;-1.90;99.90;;;;;;474381;250;28043;-75
2023/02/27 00:16:25;;;;;;;4.20;3.45;;;-1.90;99.90;;;;;;484876;245;27418;-75
2023/02/27 00:18:26;;;;;;;6.55;3.78;;;-1.90;99.90;;;;;;474389;250;27493;-75
2023/02/27 00:20:27;;;;;;;4.95;3.15;;;-2.00;99.90;;;;;;484869;245;27482;-74
2023/02/27 00:22:29;;;;;;;6.07;3.78;;;-1.90;99.90;;;;;;474369;250;27619;-75
2023/02/27 00:24:30;;;;;;;6.82;3.30;;;-2.00;99.90;;;;;;484840;245;27458;-76
2023/02/27 00:26:31;;;;;;;5.32;4.28;;;-2.00;99.90;;;;;;474363;250;27533;-75
2023/02/27 00:28:32;;;;;;;4.40;3.15;;;-2.00;99.90;;;;;;484852;245;27366;-75
2023/02/27 00:30:34;;;;;;;4.47;3.30;;;-2.00;99.90;;;;;;474361;250;28019;-76
2023/02/27 00:32:35;;;;;;;4.45;3.20;;;-2.00;99.90;;;;;;484844;245;28671;-75
2023/02/27 00:34:36;;;;;;;7.05;3.53;;;-2.00;99.90;;;;;;474388;251;29124;-76
2023/02/27 00:36:37;;;;;;;4.32;3.70;;;-2.00;99.90;;;;;;484844;245;27398;-75
2023/02/27 00:38:39;;;;;;;4.15;3.55;;;-2.00;99.90;;;;;;474367;250;27467;-75
2023/02/27 00:40:40;;;;;;;5.93;3.40;;;-2.00;99.90;;;;;;484847;245;27399;-74
2023/02/27 00:42:41;;;;;;;4.80;3.35;;;-2.10;99.90;;;;;;474342;250;27303;-75
2023/02/27 00:44:43;;;;;;;4.40;3.90;;;-2.10;99.90;;;;;;484812;245;27384;-75
2023/02/27 00:46:44;;;;;;;8.18;3.33;;;-2.10;99.90;;;;;;474381;250;27522;-76
2023/02/27 00:48:45;;;;;;;5.03;3.25;;;-2.10;99.90;;;;;;484851;245;27407;-75
2023/02/27 00:50:46;;;;;;;6.30;3.65;;;-2.10;99.90;;;;;;474365;250;27998;-75
2023/02/27 00:52:48;;;;;;;12.00;4.37;;;-2.00;99.90;;;;;;484772;245;28062;-74
2023/02/27 00:54:49;;;;;;;5.50;3.58;;;-2.10;99.90;;;;;;474330;250;28031;-76
2023/02/27 00:56:50;;;;;;;4.50;3.40;;;-2.10;99.90;;;;;;484836;245;27422;-76
2023/02/27 00:58:51;;;;;;;10.40;3.58;;;-2.10;99.90;;;;;;474341;250;27564;-75
2023/02/27 01:00:53;;;;;;;3.60;3.00;;;-2.10;99.90;;;;;;484843;245;27396;-76
2023/02/27 01:02:54;;;;;;;6.25;3.62;;;-2.10;99.90;;;;;;474367;250;27437;-76
2023/02/27 01:04:55;;;;;;;3.67;3.22;;;-2.10;99.90;;;;;;484841;245;27497;-74
2023/02/27 01:06:56;;;;;;;5.10;3.62;;;-2.20;99.90;;;;;;474379;250;27625;-76
2023/02/27 01:08:58;;;;;;;5.60;3.72;;;-2.20;99.90;;;;;;484856;245;27366;-74
2023/02/27 01:10:59;;;;;;;5.05;3.40;;;-2.20;99.90;;;;;;474360;250;28357;-74
2023/02/27 01:13:00;;;;;;;5.60;3.53;;;-2.20;99.90;;;;;;484910;245;28873;-74
2023/02/27 01:15:01;;;;;;;4.32;3.50;;;-2.30;99.90;;;;;;474365;250;27463;-75
2023/02/27 01:17:03;;;;;;;5.47;3.53;;;-2.30;99.90;;;;;;484836;245;27505;-75
2023/02/27 01:19:04;;;;;;;5.78;4.03;;;-2.30;99.90;;;;;;474378;250;27566;-75
2023/02/27 01:21:05;;;;;;;3.92;3.30;;;-2.30;99.90;;;;;;484881;245;27437;-76
2023/02/27 01:23:06;;;;;;;5.62;3.92;;;-2.30;99.90;;;;;;474240;251;27548;-76
2023/02/27 01:25:08;;;;;;;9.60;4.20;;;-2.30;99.90;;;;;;484902;245;27482;-75
2023/02/27 01:27:09;;;;;;;9.93;4.70;;;-2.30;99.90;;;;;;474424;250;27394;-75
2023/02/27 01:29:10;;;;;;;7.43;4.03;;;-2.40;99.90;;;;;;484905;245;27455;-77
2023/02/27 01:31:11;;;;;;;8.27;4.12;;;-2.40;99.90;;;;;;474395;250;28003;-76
2023/02/27 01:33:13;;;;;;;9.77;4.50;;;-2.40;99.90;;;;;;484913;245;28049;-75
2023/02/27 01:35:14;;;;;;;14.45;5.57;;;-2.40;99.90;;;;;;484856;245;27372;-74
2023/02/27 01:37:15;;;;;;;13.38;5.30;;;-2.40;99.90;;;;;;484875;245;27381;-75
2023/02/27 01:39:16;;;;;;;7.12;4.10;;;-2.40;99.90;;;;;;474367;250;27384;-75
2023/02/27 01:41:18;;;;;;;7.53;3.95;;;-2.40;99.90;;;;;;484788;245;27820;-75
2023/02/27 01:43:19;;;;;;;5.55;3.75;;;-2.40;99.90;;;;;;474332;251;27297;-76
2023/02/27 01:45:20;;;;;;;5.82;4.00;;;-2.40;99.90;;;;;;484845;245;27383;-76
2023/02/27 01:47:21;;;;;;;8.80;3.85;;;-2.50;99.90;;;;;;474369;250;27516;-75
2023/02/27 01:49:23;;;;;;;4.00;3.15;;;-2.40;99.90;;;;;;484869;245;27843;-75
2023/02/27 01:51:24;;;;;;;5.32;3.85;;;-2.50;99.90;;;;;;474374;250;28160;-76
2023/02/27 01:53:25;;;;;;;7.12;4.18;;;-2.40;99.90;;;;;;484878;245;27880;-75
2023/02/27 01:55:26;;;;;;;4.35;3.37;;;-2.50;99.90;;;;;;484902;245;27355;-75
2023/02/27 01:57:28;;;;;;;4.25;3.67;;;-2.50;99.90;;;;;;474390;251;27515;-76
2023/02/27 01:59:29;;;;;;;6.18;3.30;;;-2.50;99.90;;;;;;484881;245;27264;-77
2023/02/27 02:01:30;;;;;;;6.30;3.45;;;-2.50;99.90;;;;;;474393;250;27422;-76
2023/02/27 02:03:31;;;;;;;4.60;3.53;;;-2.50;99.90;;;;;;484886;245;27184;-75
2023/02/27 02:05:33;;;;;;;4.93;3.62;;;-2.50;99.90;;;;;;474402;250;27507;-75
2023/02/27 02:07:34;;;;;;;4.93;2.95;;;-2.50;99.90;;;;;;484887;245;27397;-75
2023/02/27 02:09:35;;;;;;;5.30;3.28;;;-2.50;99.90;;;;;;474382;250;28082;-75
2023/02/27 02:11:36;;;;;;;4.75;3.67;;;-2.50;99.90;;;;;;484839;245;29111;-75
2023/02/27 02:13:38;;;;;;;8.43;3.50;;;-2.50;99.90;;;;;;474419;250;27535;-75
2023/02/27 02:15:39;;;;;;;6.90;3.20;;;-2.50;99.90;;;;;;484865;245;27500;-76
2023/02/27 02:17:42;;;;;;;7.85;3.33;;;-2.60;99.90;;;;;;474378;250;27501;-75
2023/02/27 02:19:42;;;;;;;4.32;2.83;;;-2.60;99.90;;;;;;484720;245;27311;-75
2023/02/27 02:21:43;;;;;;;7.53;3.53;;;-2.60;99.90;;;;;;474381;250;27422;-77
2023/02/27 02:23:44;;;;;;;5.22;3.17;;;-2.60;99.90;;;;;;484885;245;27435;-75
2023/02/27 02:25:45;;;;;;;3.42;2.83;;;-2.60;99.90;;;;;;474388;250;27535;-75
2023/02/27 02:27:46;;;;;;;3.87;3.10;;;-2.60;99.90;;;;;;484858;245;27485;-75
2023/02/27 02:29:48;;;;;;;5.32;3.75;;;-2.60;99.90;;;;;;474378;250;28039;-74
2023/02/27 02:31:49;;;;;;;3.85;3.03;;;-2.70;99.90;;;;;;484843;245;29058;-76
2023/02/27 02:33:50;;;;;;;3.80;3.17;;;-2.60;99.90;;;;;;474417;250;28060;-75
2023/02/27 02:35:52;;;;;;;5.03;3.40;;;-2.70;99.90;;;;;;484870;245;27256;-76
2023/02/27 02:37:53;;;;;;;4.18;3.78;;;-2.70;99.90;;;;;;474382;250;27270;-75
2023/02/27 02:39:54;;;;;;;4.00;3.25;;;-2.70;99.90;;;;;;484882;245;27227;-76
2023/02/27 02:41:55;;;;;;;4.45;3.33;;;-2.70;99.90;;;;;;474400;250;27635;-75
2023/02/27 02:43:56;;;;;;;5.15;3.80;;;-2.70;99.90;;;;;;484900;245;27169;-76
2023/02/27 02:45:58;;;;;;;4.50;3.35;;;-2.70;99.90;;;;;;474396;250;27497;-75
2023/02/27 02:47:59;;;;;;;3.90;3.45;;;-2.70;99.90;;;;;;484859;245;27321;-76
2023/02/27 02:50:00;;;;;;;3.20;2.90;;;-2.70;99.90;;;;;;474404;250;27991;-75
2023/02/27 02:52:02;;;;;;;3.75;3.25;;;-2.70;99.90;;;;;;484870;245;29131;-76
2023/02/27 02:54:03;;;;;;;4.57;3.03;;;-2.80;99.90;;;;;;484901;245;27442;-75
2023/02/27 02:56:04;;;;;;;4.65;3.33;;;-2.80;99.90;;;;;;474406;250;27496;-77
2023/02/27 02:58:05;;;;;;;5.03;3.25;;;-2.90;99.90;;;;;;484889;245;27415;-76
2023/02/27 03:00:07;;;;;;;3.10;2.80;;;-2.80;99.90;;;;;;474383;251;27579;-75
2023/02/27 03:02:08;;;;;;;5.25;3.45;;;-2.90;99.90;;;;;;484862;245;27366;-75
2023/02/27 03:04:09;;;;;;;5.75;3.30;;;-2.80;99.90;;;;;;474394;250;27562;-74
2023/02/27 03:06:10;;;;;;;4.80;3.22;;;-2.90;99.90;;;;;;484867;245;27012;-74
2023/02/27 03:08:12;;;;;;;4.40;3.20;;;-2.90;99.90;;;;;;474401;250;27400;-75
2023/02/27 03:10:13;;;;;;;7.95;3.75;;;-2.90;99.90;;;;;;484811;245;27828;-76
2023/02/27 03:12:14;;;;;;;4.93;3.90;;;-2.90;99.90;;;;;;484862;245;27835;-76
2023/02/27 03:14:15;;;;;;;5.28;3.78;;;-3.00;99.90;;;;;;474352;251;29355;-76
2023/02/27 03:16:17;;;;;;;6.90;3.08;;;-2.90;99.90;;;;;;484878;245;27363;-76
2023/02/27 03:18:19;;;;;;;5.00;3.67;;;-2.90;99.90;;;;;;474394;250;27572;-75
2023/02/27 03:20:19;;;;;;;6.93;3.65;;;-2.90;99.90;;;;;;484807;245;27348;-76
2023/02/27 03:22:20;;;;;;;5.50;3.80;;;-2.90;99.90;;;;;;474345;250;27297;-76
2023/02/27 03:24:22;;;;;;;3.67;3.10;;;-2.90;99.90;;;;;;484858;245;27336;-75
2023/02/27 03:26:23;;;;;;;3.72;3.35;;;-3.00;99.90;;;;;;474389;250;27480;-75
2023/02/27 03:28:24;;;;;;;3.50;3.20;;;-3.00;99.90;;;;;;484876;245;27249;-76
2023/02/27 03:30:26;;;;;;;4.55;3.50;;;-3.00;99.90;;;;;;474380;250;27815;-75
2023/02/27 03:32:27;;;;;;;4.65;3.45;;;-3.00;99.90;;;;;;484839;245;27989;-75
2023/02/27 03:34:28;;;;;;;8.10;3.40;;;-3.00;99.90;;;;;;474349;250;27464;-75
2023/02/27 03:36:30;;;;;;;4.60;3.00;;;-3.00;99.90;;;;;;484854;245;27161;-76
2023/02/27 03:38:30;;;;;;;5.20;3.42;;;-3.10;99.90;;;;;;474334;250;27475;-77
2023/02/27 03:40:32;;;;;;;9.00;3.10;;;-3.00;99.90;;;;;;484836;245;27163;-75
2023/02/27 03:42:33;;;;;;;4.03;3.60;;;-3.00;99.90;;;;;;474337;250;27401;-76
2023/02/27 03:44:35;;;;;;;3.60;3.25;;;-3.00;99.90;;;;;;484856;245;27209;-76
2023/02/27 03:46:35;;;;;;;4.82;3.15;;;-3.10;99.90;;;;;;474382;250;27275;-75
2023/02/27 03:48:37;;;;;;;5.85;3.20;;;-3.00;99.90;;;;;;484873;245;27320;-74
2023/02/27 03:50:38;;;;;;;9.40;3.42;;;-3.10;99.90;;;;;;474385;248;27827;-76
2023/02/27 03:52:39;;;;;;;4.75;3.10;;;-3.10;99.90;;;;;;484869;245;28859;-75
2023/02/27 03:54:40;;;;;;;6.85;3.42;;;-3.10;99.90;;;;;;474370;250;27776;-75
2023/02/27 03:56:42;;;;;;;3.05;2.70;;;-3.10;99.90;;;;;;484906;245;27350;-76
2023/02/27 03:58:43;;;;;;;3.25;2.95;;;-3.10;99.90;;;;;;474415;250;27287;-76
2023/02/27 04:00:44;;;;;;;4.72;2.90;;;-3.10;99.90;;;;;;484911;245;27115;-76
2023/02/27 04:02:45;;;;;;;3.45;3.00;;;-3.10;99.90;;;;;;474410;250;27066;-75
2023/02/27 04:04:47;;;;;;;3.70;3.15;;;-3.10;99.90;;;;;;484890;245;27176;-75
2023/02/27 04:09:07;;;;;;;4.97;3.03;;;-3.10;99.90;;;;;;484759;245;27637;-76
2023/02/27 04:11:09;;;;;;;4.47;3.35;;;-3.10;99.90;;;;;;484859;245;27709;-76
2023/02/27 04:13:10;;;;;;;5.97;3.03;;;-3.10;99.90;;;;;;474356;249;27274;-75
2023/02/27 04:15:11;;;;;;;6.85;3.30;;;-3.10;99.90;;;;;;484872;245;27145;-75
2023/02/27 04:17:12;;;;;;;6.80;3.15;;;-3.10;99.90;;;;;;474382;250;27360;-76
2023/02/27 04:19:14;;;;;;;4.43;2.87;;;-3.10;99.90;;;;;;484867;245;27196;-75
2023/02/27 04:21:15;;;;;;;5.68;3.33;;;-3.10;99.90;;;;;;474391;250;27093;-77
2023/02/27 04:23:17;;;;;;;4.87;3.10;;;;;;;;;;484757;245;27080;-75
2023/02/27 04:25:18;;;;;;;3.78;2.87;;;-3.20;99.90;;;;;;484868;244;26475;-76
2023/02/27 04:27:20;;;;;;;4.78;2.90;;;-3.10;99.90;;;;;;474387;250;27394;-76
2023/02/27 04:29:21;;;;;;;4.90;2.90;;;-3.10;99.90;;;;;;484852;245;26919;-76
2023/02/27 04:31:23;;;;;;;5.28;2.78;;;-3.10;99.90;;;;;;474358;250;27256;-76
2023/02/27 04:33:23;;;;;;;5.57;3.10;;;-3.20;99.90;;;;;;474390;250;27687;-76
2023/02/27 04:35:26;;;;;;;2.72;2.53;;;;;;;;;;474375;250;27186;-74
2023/02/27 04:37:27;;;;;;;3.90;3.35;;;-3.20;99.90;;;;;;484860;244;26483;-76
2023/02/27 04:39:28;;;;;;;6.78;3.35;;;-3.10;99.90;;;;;;474395;251;27186;-76
2023/02/27 04:41:30;;;;;;;3.47;3.17;;;-3.10;99.90;;;;;;484869;245;26957;-75
2023/02/27 04:43:31;;;;;;;6.40;3.15;;;-3.10;99.90;;;;;;474384;250;27334;-74
2023/02/27 04:45:34;;;;;;;3.20;2.90;;;-3.20;99.90;;;;;;484859;245;27139;-75
2023/02/27 04:47:33;;;;;;;5.10;2.87;;;-3.20;99.90;;;;;;474258;251;27288;-74
2023/02/27 04:49:35;;;;;;;3.05;2.65;;;-3.20;99.90;;;;;;484854;245;27099;-76
2023/02/27 04:51:36;;;;;;;5.07;3.35;;;-3.20;99.90;;;;;;474355;251;27928;-75
2023/02/27 04:53:37;;;;;;;5.65;4.37;;;-3.20;99.90;;;;;;484852;245;27711;-76
2023/02/27 04:55:40;;;;;;;2.92;2.53;;;;;;;;;;474373;250;27197;-76
2023/02/27 04:57:41;;;;;;;6.90;3.08;;;-3.30;99.90;;;;;;484835;244;26538;-75
2023/02/27 04:59:44;;;;;;;4.85;2.60;;;;;;;;;;474379;250;27078;-74
2023/02/27 05:01:45;;;;;;;3.50;2.78;;;-3.40;99.90;;;;;;484847;245;26526;-75
2023/02/27 05:03:46;;;;;;;4.85;2.75;;;-3.30;99.90;;;;;;474358;250;27175;-75
2023/02/27 05:05:48;;;;;;;4.30;3.00;;;;;;;;;;484844;245;26985;-74
2023/02/27 05:07:49;;;;;;;3.92;2.80;;;-3.30;99.90;;;;;;474366;250;26683;-76
2023/02/27 05:09:51;;;;;;;3.17;2.87;;;-3.30;99.90;;;;;;484853;245;27155;-76
2023/02/27 05:11:52;;;;;;;4.35;3.37;;;-3.20;99.90;;;;;;474372;250;27107;-75
2023/02/27 05:13:53;;;;;;;5.97;3.08;;;-3.20;99.90;;;;;;484855;245;26977;-76
2023/02/27 05:15:55;;;;;;;3.65;3.00;;;-3.30;99.90;;;;;;474394;250;27535;-76
2023/02/27 05:17:56;;;;;;;4.40;2.53;;;-3.30;99.90;;;;;;484869;245;27104;-76
2023/02/27 05:19:58;;;;;;;4.95;2.90;;;-3.30;99.90;;;;;;474369;250;27229;-77
2023/02/27 05:21:58;;;;;;;3.05;2.85;;;-3.30;99.90;;;;;;474334;251;27031;-76
2023/02/27 05:24:00;;;;;;;7.62;3.50;;;-3.30;99.90;;;;;;474342;250;27617;-76
2023/02/27 05:26:01;;;;;;;4.70;4.30;;;-3.30;99.90;;;;;;484892;245;28730;-74
2023/02/27 05:28:02;;;;;;;4.70;3.15;;;-3.40;99.90;;;;;;474392;250;27048;-77
2023/02/27 05:30:03;;;;;;;3.12;2.90;;;-3.30;99.90;;;;;;484856;245;26964;-76
2023/02/27 05:32:06;;;;;;;3.50;2.97;;;;;;;;;;474356;250;27084;-75
2023/02/27 05:34:07;;;;;;;4.12;3.25;;;-3.40;99.90;;;;;;484860;245;27049;-77
2023/02/27 05:36:08;;;;;;;3.22;2.80;;;-3.40;99.90;;;;;;474325;250;27516;-75
2023/02/27 05:38:11;;;;;;;7.50;3.10;;;;;;;;;;484862;245;27632;-75
2023/02/27 05:40:12;;;;;;;3.87;2.70;;;-3.40;99.90;;;;;;484831;244;26542;-76
2023/02/27 05:42:13;;;;;;;4.78;3.00;;;-3.40;99.90;;;;;;474395;250;27218;-76
2023/02/27 05:44:14;;;;;;;3.22;2.87;;;-3.50;99.90;;;;;;484846;245;27825;-77
2023/02/27 05:46:16;;;;;;;3.78;2.72;;;-3.40;99.90;;;;;;474391;250;27860;-75
2023/02/27 05:48:18;;;;;;;3.87;2.80;;;;;;;;;;484846;245;27453;-74
2023/02/27 05:50:19;;;;;;;4.37;2.83;;;-3.50;99.90;;;;;;474354;250;26737;-76
2023/02/27 05:52:22;;;;;;;4.57;2.95;;;;;;;;;;484832;245;26946;-75
2023/02/27 05:54:23;;;;;;;3.67;3.00;;;-3.50;99.90;;;;;;474352;250;26590;-75
2023/02/27 05:56:25;;;;;;;2.80;2.60;;;-3.40;99.90;;;;;;484854;245;27160;-75
2023/02/27 05:58:26;;;;;;;6.65;2.67;;;-3.50;99.90;;;;;;474385;250;27090;-75
2023/02/27 06:00:28;;;;;;;3.20;2.87;;;;;;;;;;484852;245;27090;-75
2023/02/27 06:02:29;;;;;;;2.80;2.60;;;-3.50;99.90;;;;;;474365;250;26602;-76
2023/02/27 06:04:30;;;;;;;6.30;3.20;;;-3.40;99.90;;;;;;484844;245;27113;-74
2023/02/27 06:06:32;;;;;;;3.42;3.12;;;-3.50;99.90;;;;;;474410;250;27173;-75
2023/02/27 06:08:34;;;;;;;3.30;3.00;;;;;;;;;;484904;245;27035;-75
2023/02/27 06:10:35;;;;;;;5.07;2.80;;;-3.50;99.90;;;;;;474371;250;27116;-74
2023/02/27 06:12:37;;;;;;;2.65;2.45;;;-3.40;99.90;;;;;;484883;245;27276;-76
2023/02/27 06:14:39;;;;;;;4.93;2.67;;;;;;;;;;474390;250;27234;-75
2023/02/27 06:16:40;;;;;;;5.07;3.15;;;-3.50;99.90;;;;;;484879;245;26414;-75
2023/02/27 06:18:43;;;;;;;3.12;2.80;;;;;;;;;;474412;250;27739;-75
2023/02/27 06:20:45;;;;;;;3.67;2.60;;;;;;;;;;484881;244;26829;-77
2023/02/27 06:22:48;;;;;;;3.25;2.95;;;;;;;;;;484881;244;27104;-74
2023/02/27 06:24:50;;;;;;;3.00;2.50;;;;;;;;;;474395;250;26938;-75
2023/02/27 06:26:52;;;;;;;3.00;2.80;;;-3.50;99.90;;;;;;484886;244;26486;-76
2023/02/27 06:28:53;;;;;;;2.85;2.65;;;-3.50;99.90;;;;;;484817;245;27166;-76
2023/02/27 06:30:54;;;;;;;4.37;3.25;;;-3.40;99.90;;;;;;474417;250;27108;-74
2023/02/27 06:32:55;;;;;;;3.50;3.00;;;-3.40;99.90;;;;;;484921;245;27212;-76
2023/02/27 06:34:58;;;;;;;3.08;2.83;;;;;;;;;;474419;250;27197;-75
2023/02/27 06:36:59;;;;;;;3.33;2.40;;;-3.50;99.90;;;;;;474394;249;27413;-77
2023/02/27 06:39:00;;;;;;;3.55;2.70;;;-3.40;99.90;;;;;;484885;245;26925;-76
2023/02/27 06:41:03;;;;;;;2.75;2.55;;;-3.40;99.90;;;;;;474398;250;27298;-76
2023/02/27 06:43:03;;;;;;;2.87;2.30;;;-3.30;99.90;;;;;;484759;245;27059;-76
2023/02/27 06:45:04;;;;;;;4.07;2.80;;;-3.30;99.90;;;;;;484886;245;26922;-75
2023/02/27 06:47:05;;;;;;;3.65;3.10;;;-3.40;99.90;;;;;;474294;251;27068;-75
2023/02/27 06:49:06;;;;;;;4.07;3.10;;;-3.30;99.90;;;;;;484885;245;27246;-76
2023/02/27 06:51:08;;;;;;;3.95;2.92;;;-3.30;99.90;;;;;;474396;250;27896;-75
2023/02/27 06:53:09;;;;;;;3.55;3.10;;;-3.30;99.90;;;;;;484877;245;28754;-74
2023/02/27 06:55:10;;;;;;;4.25;2.90;;;-3.30;99.90;;;;;;474423;250;27297;-75
2023/02/27 06:57:11;;;;;;;5.32;2.62;;;-3.20;99.90;;;;;;484899;245;27182;-75
2023/02/27 06:59:13;;;;;;;2.75;2.20;;;-3.20;99.90;;;;;;474411;251;27174;-75
2023/02/27 07:01:15;;;;;;;5.65;2.90;;;;;;;;;;484869;245;27415;-75
2023/02/27 07:03:16;;;;;;;2.65;2.45;;;-3.40;99.90;;;;;;474424;251;27071;-76
2023/02/27 07:05:17;;;;;;;3.78;2.75;;;-3.30;99.90;;;;;;484897;245;27245;-76
2023/02/27 07:07:19;;;;;;;4.70;2.50;;;-3.30;99.90;;;;;;474399;250;27201;-75
2023/02/27 07:09:21;;;;;;;4.20;2.22;;;-3.30;99.90;;;;;;484844;245;27061;-77
2023/02/27 07:11:21;;;;;;;3.72;2.30;;;-3.30;99.90;;;;;;474256;251;27184;-75
2023/02/27 07:13:23;;;;;;;3.42;2.40;;;-3.30;99.90;;;;;;484847;245;27142;-77
2023/02/27 07:15:24;;;;;;;6.50;2.90;;;-3.20;99.90;;;;;;474408;250;27114;-76
2023/02/27 07:17:25;;;;;;;2.78;2.58;;;-3.20;99.90;;;;;;484863;245;27146;-75
2023/02/27 07:19:26;;;;;;;4.43;2.67;;;-3.20;99.90;;;;;;484837;245;27275;-75
2023/02/27 07:21:28;;;;;;;4.00;2.22;;;-3.10;99.90;;;;;;474393;250;27832;-76
2023/02/27 07:23:29;;;;;;;2.70;2.35;;;-3.10;99.90;;;;;;484871;245;27583;-75
2023/02/27 07:25:30;;;;;;;4.18;2.75;;;-3.10;99.90;;;;;;474364;250;27383;-76
2023/02/27 07:27:31;;;;;;;6.60;2.35;;;-3.10;99.90;;;;;;484850;245;27044;-77
2023/02/27 07:29:34;;;;;;;5.95;2.35;;;-3.00;99.90;;;;;;484876;245;27126;-76
2023/02/27 07:31:34;;;;;;;3.05;2.40;;;-3.00;99.90;;;;;;474316;250;27425;-76
2023/02/27 07:33:35;;;;;;;3.60;2.62;;;-3.00;99.90;;;;;;484862;245;26972;-75
2023/02/27 07:35:36;;;;;;;3.20;2.92;;;-2.90;99.90;;;;;;474374;250;27430;-76
2023/02/27 07:37:38;;;;;;;2.92;2.72;;;-2.80;99.90;;;;;;484865;245;27174;-76
2023/02/27 07:39:39;;;;;;;3.60;2.47;;;-2.80;99.90;;;;;;484877;245;27587;-74
2023/02/27 07:41:40;;;;;;;3.20;2.78;;;-2.80;99.90;;;;;;474390;250;27966;-76
2023/02/27 07:43:41;;;;;;;3.55;3.00;;;-2.70;99.90;;;;;;484867;245;28909;-76
2023/02/27 07:45:43;;;;;;;4.47;2.45;;;-2.70;99.90;;;;;;474368;250;27528;-76
2023/02/27 07:47:44;;;;;;;4.35;2.70;;;-2.70;99.90;;;;;;484863;245;27084;-75
2023/02/27 07:49:45;;;;;;;2.72;2.62;;;-2.60;99.90;;;;;;474390;250;27290;-76
2023/02/27 07:51:46;;;;;;;3.62;2.92;;;-2.60;99.90;;;;;;484876;245;27377;-75
2023/02/27 07:53:48;;;;;;;3.37;3.08;;;-2.50;99.90;;;;;;474363;250;27090;-76
2023/02/27 07:55:49;;;;;;;2.97;2.67;;;-2.50;99.90;;;;;;484863;245;27417;-75
2023/02/27 07:57:50;;;;;;;4.30;2.70;;;-2.50;99.90;;;;;;474376;250;27334;-76
2023/02/27 07:59:51;;;;;;;3.33;2.67;;;-2.40;99.90;;;;;;484853;245;27847;-76
2023/02/27 08:01:53;;;;;;;3.33;2.60;;;-2.30;99.90;;;;;;474387;250;27991;-75
2023/02/27 08:03:54;;;;;;;2.72;2.53;;;-2.30;99.90;;;;;;484876;245;28947;-75
2023/02/27 08:05:55;;;;;;;2.20;2.05;;;-2.30;99.90;;;;;;474318;251;27532;-76
2023/02/27 08:07:56;;;;;;;3.83;2.45;;;-2.30;99.90;;;;;;484869;245;27025;-76
2023/02/27 08:09:58;;;;;;;3.87;3.28;;;-2.20;99.90;;;;;;474213;251;27519;-76
2023/02/27 08:12:00;;;;;;;2.65;2.45;;;-2.20;99.90;;;;;;484869;245;27444;-75
2023/02/27 08:14:00;;;;;;;2.97;2.72;;;-2.10;99.90;;;;;;474300;251;27363;-75
2023/02/27 08:16:01;;;;;;;2.40;2.20;;;-2.10;99.90;;;;;;484836;245;27415;-75
2023/02/27 08:18:03;;;;;;;2.45;2.25;;;-2.00;99.90;;;;;;474376;251;27440;-75
2023/02/27 08:20:04;;;;;;;2.37;2.17;;;-2.00;99.90;;;;;;484874;245;27843;-76
2023/02/27 08:22:05;;;;;;;2.47;2.28;;;-1.90;99.90;;;;;;474398;250;28015;-76
2023/02/27 08:24:06;;;;;;;4.10;2.65;;;-1.90;99.90;;;;;;484876;245;27705;-75
2023/02/27 08:26:08;;;;;;;3.08;2.70;;;-1.80;99.90;;;;;;474348;250;27595;-76
2023/02/27 08:28:09;;;;;;;3.42;3.00;;;-1.80;99.90;;;;;;484862;245;27411;-76
2023/02/27 08:30:10;;;;;;;2.62;2.42;;;-1.70;99.90;;;;;;474387;250;27469;-75
2023/02/27 08:32:11;;;;;;;2.60;2.40;;;-1.60;99.90;;;;;;484865;245;27478;-74
2023/02/27 08:34:13;;;;;;;3.17;2.87;;;-1.60;99.90;;;;;;474373;251;27484;-75
2023/02/27 08:36:14;;;;;;;3.55;2.45;;;-1.50;99.90;;;;;;484858;245;27500;-76
2023/02/27 08:38:15;;;;;;;3.37;2.50;;;-1.50;99.90;;;;;;474416;250;27565;-76
2023/02/27 08:40:16;;;;;;;2.37;2.17;;;-1.50;99.90;;;;;;484883;245;27828;-76
2023/02/27 08:42:18;;;;;;;2.53;2.33;;;-1.40;99.90;;;;;;474396;250;28020;-75
2023/02/27 08:44:19;;;;;;;3.87;2.53;;;-1.30;99.90;;;;;;484879;245;27832;-75
2023/02/27 08:46:20;;;;;;;3.15;2.87;;;-1.30;99.90;;;;;;474382;250;27570;-76
2023/02/27 08:48:23;;;;;;;2.28;2.12;;;-1.30;99.90;;;;;;484852;245;27482;-76
2023/02/27 08:50:23;;;;;;;2.60;2.40;;;-1.10;99.90;;;;;;474264;251;27476;-74
2023/02/27 08:52:24;;;;;;;2.33;2.15;;;-1.20;99.90;;;;;;484861;245;27447;-76
2023/02/27 08:54:25;;;;;;;4.10;2.60;;;-1.10;99.90;;;;;;474317;250;27488;-76
2023/02/27 08:56:26;;;;;;;3.05;2.03;;;-1.00;99.90;;;;;;484815;245;27415;-74
2023/02/27 08:58:28;;;;;;;2.12;2.03;;;-1.00;99.90;;;;;;474367;250;27618;-75
2023/02/27 09:00:31;;;;;;;3.58;2.37;;;-1.00;99.90;;;;;;484840;245;27919;-75
2023/02/27 09:02:30;;;;;;;2.30;2.10;;;-1.00;99.90;;;;;;474207;250;27984;-75
2023/02/27 09:04:31;;;;;;;3.72;2.10;;;-0.90;99.90;;;;;;484735;245;27826;-75
2023/02/27 09:06:33;;;;;;;2.72;2.22;;;-0.80;99.50;;;;;;474314;250;27590;-76
2023/02/27 09:08:34;;;;;;;2.35;2.15;;;-0.80;99.80;;;;;;484803;245;27398;-77
2023/02/27 09:10:35;;;;;;;2.55;2.20;;;-0.60;99.60;;;;;;474323;250;27480;-76
2023/02/27 09:12:36;;;;;;;3.12;2.40;;;-0.60;97.70;;;;;;484812;245;27402;-75
2023/02/27 09:14:38;;;;;;;3.28;2.30;;;-0.50;98.90;;;;;;474272;250;27635;-75
2023/02/27 09:16:39;;;;;;;6.30;2.95;;;-0.50;97.90;;;;;;484784;245;27410;-74
2023/02/27 09:18:40;;;;;;;2.58;2.37;;;-0.50;97.90;;;;;;474342;251;27527;-75
2023/02/27 09:20:41;;;;;;;4.68;2.40;;;-0.50;97.80;;;;;;484824;245;27834;-74
2023/02/27 09:22:43;;;;;;;5.20;2.72;;;-0.40;97.90;;;;;;474333;250;27978;-77
2023/02/27 09:24:44;;;;;;;2.72;2.53;;;-0.40;96.60;;;;;;484847;245;28928;-76
2023/02/27 09:26:45;;;;;;;2.47;2.28;;;-0.30;96.80;;;;;;474324;250;27556;-74
2023/02/27 09:28:48;;;;;;;2.60;2.08;;;-0.30;95.70;;;;;;484848;245;27491;-75
2023/02/27 09:30:48;;;;;;;2.28;1.80;;;-0.30;94.70;;;;;;474304;251;27555;-75
2023/02/27 09:32:49;;;;;;;4.65;2.25;;;-0.30;95.60;;;;;;484839;245;27480;-75
2023/02/27 09:34:50;;;;;;;2.33;2.15;;;-0.30;94.70;;;;;;474374;250;27595;-75
2023/02/27 09:36:52;;;;;;;2.65;2.28;;;-0.10;94.70;;;;;;484849;245;27414;-75
2023/02/27 09:38:53;;;;;;;2.40;2.30;;;0.00;95.00;;;;;;474398;250;27524;-75
2023/02/27 09:40:54;;;;;;;3.05;2.30;;;-0.10;94.90;;;;;;484857;245;27392;-75
2023/02/27 09:42:56;;;;;;;2.03;1.92;;;0.00;95.90;;;;;;474384;250;28025;-75
2023/02/27 09:44:57;;;;;;;2.95;2.47;;;0.10;95.00;;;;;;484798;245;27822;-75
2023/02/27 09:46:58;;;;;;;2.60;2.30;;;0.10;94.80;;;;;;474342;250;28005;-75
2023/02/27 09:48:59;;;;;;;2.40;2.20;;;0.20;93.60;;;;;;484889;245;27474;-75
2023/02/27 09:51:00;;;;;;;2.62;2.30;;;0.30;93.80;;;;;;474407;251;27492;-75
2023/02/27 09:53:02;;;;;;;2.67;2.45;;;0.20;92.30;;;;;;484906;245;27403;-75
2023/02/27 09:55:03;;;;;;;3.55;2.20;;;0.20;93.70;;;;;;474398;250;27485;-75
2023/02/27 09:57:04;;;;;;;4.25;2.72;;;0.30;91.90;;;;;;484868;245;27469;-75
2023/02/27 09:59:05;;;;;;;4.75;2.40;;;0.50;92.20;;;;;;484886;245;27461;-76
2023/02/27 10:01:07;;;;;;;2.65;2.33;;;0.30;93.20;;;;;;474413;250;27497;-76
2023/02/27 10:03:08;;;;;;;5.28;2.08;;;0.30;92.30;;;;;;484889;245;27442;-75
2023/02/27 10:05:09;;;;;;;2.53;2.40;;;0.40;92.60;;;;;;474352;250;27495;-76
2023/02/27 10:07:10;;;;;;;3.80;2.12;;;0.40;92.70;;;;;;484848;245;27415;-76
2023/02/27 10:09:12;;;;;;;2.15;2.05;;;0.40;91.20;;;;;;474388;250;28489;-75
2023/02/27 10:11:13;;;;;;;2.45;2.00;;;0.50;91.00;;;;;;484882;245;27838;-75
2023/02/27 10:13:14;;;;;;;3.30;2.28;;;0.40;89.70;;;;;;474388;250;29882;-76
2023/02/27 10:15:15;;;;;;;2.53;2.12;;;0.50;89.10;;;;;;484827;245;27839;-76
2023/02/27 10:17:17;;;;;;;5.45;2.60;;;0.50;88.80;;;;;;474383;250;27543;-76
2023/02/27 10:19:18;;;;;;;2.15;1.90;;;0.60;89.80;;;;;;484875;245;27399;-75
2023/02/27 10:21:19;;;;;;;2.75;2.55;;;0.50;89.40;;;;;;474396;250;27476;-75
2023/02/27 10:23:20;;;;;;;2.53;1.80;;;0.70;90.00;;;;;;484863;245;27517;-75
2023/02/27 10:25:22;;;;;;;1.85;1.75;;;0.90;89.00;;;;;;474370;250;27480;-76
2023/02/27 10:27:23;;;;;;;3.22;2.22;;;0.70;88.90;;;;;;484845;245;27433;-75
2023/02/27 10:29:24;;;;;;;5.07;2.28;;;0.60;86.90;;;;;;474351;250;27525;-76
2023/02/27 10:31:25;;;;;;;3.55;2.58;;;0.60;87.30;;;;;;484867;245;27383;-75
2023/02/27 10:33:27;;;;;;;2.10;1.90;;;0.70;87.00;;;;;;474402;250;27515;-75
2023/02/27 10:35:28;;;;;;;3.33;2.20;;;0.70;87.10;;;;;;484867;245;27403;-76
2023/02/27 10:37:29;;;;;;;2.47;2.05;;;0.60;85.80;;;;;;474354;250;27988;-75